sensor_id;sensor_type;location;lat;lon;timestamp;pressure;altitude;pressure_sealevel;temperature;humidity
26978;BME280;56314;48.088;11.642;2023-02-27T00:01:30;95575.16;;;-2.11;84.00
26978;BME280;56314;48.088;11.642;2023-02-27T00:03:57;95579.66;;;-2.21;83.28
26978;BME280;56314;48.088;11.642;2023-02-27T00:06:23;95583.16;;;-2.24;84.05
26978;BME280;56314;48.088;11.642;2023-02-27T00:08:48;95577.22;;;-2.27;83.63
26978;BME280;56314;48.088;11.642;2023-02-27T00:11:14;95581.72;;;-2.36;84.03
26978;BME280;56314;48.088;11.642;2023-02-27T00:13:39;95573.34;;;-2.44;84.80
26978;BME280;56314;48.088;11.642;2023-02-27T00:16:05;95587.00;;;-2.42;85.03
26978;BME280;56314;48.088;11.642;2023-02-27T00:18:30;95587.13;;;-2.48;84.72
26978;BME280;56314;48.088;11.642;2023-02-27T00:20:56;95588.88;;;-2.49;84.96
26978;BME280;56314;48.088;11.642;2023-02-27T00:23:23;95587.13;;;-2.48;85.38
26978;BME280;56314;48.088;11.642;2023-02-27T00:25:49;95587.19;;;-2.51;85.31
26978;BME280;56314;48.088;11.642;2023-02-27T00:28:15;95584.50;;;-2.45;84.87
26978;BME280;56314;48.088;11.642;2023-02-27T00:30:40;95581.94;;;-2.45;85.36
26978;BME280;56314;48.088;11.642;2023-02-27T00:33:06;95588.88;;;-2.50;85.06
26978;BME280;56314;48.088;11.642;2023-02-27T00:35:31;95592.31;;;-2.50;85.11
26978;BME280;56314;48.088;11.642;2023-02-27T00:37:57;95589.81;;;-2.53;86.48
26978;BME280;56314;48.088;11.642;2023-02-27T00:40:22;95592.22;;;-2.47;86.74
26978;BME280;56314;48.088;11.642;2023-02-27T00:42:50;95590.53;;;-2.46;85.41
26978;BME280;56314;48.088;11.642;2023-02-27T00:45:15;95592.22;;;-2.47;85.51
26978;BME280;56314;48.088;11.642;2023-02-27T00:47:41;95583.63;;;-2.44;85.43
26978;BME280;56314;48.088;11.642;2023-02-27T00:50:07;95581.88;;;-2.43;85.26
26978;BME280;56314;48.088;11.642;2023-02-27T00:52:32;95583.63;;;-2.45;86.51
26978;BME280;56314;48.088;11.642;2023-02-27T00:54:59;95586.19;;;-2.44;86.02
26978;BME280;56314;48.088;11.642;2023-02-27T00:57:25;95593.91;;;-2.44;85.80
26978;BME280;56314;48.088;11.642;2023-02-27T00:59:50;95583.69;;;-2.47;85.29
26978;BME280;56314;48.088;11.642;2023-02-27T01:02:16;95588.00;;;-2.48;85.78
26978;BME280;56314;48.088;11.642;2023-02-27T01:04:41;95593.31;;;-2.55;86.36
26978;BME280;56314;48.088;11.642;2023-02-27T01:07:07;95583.16;;;-2.61;86.57
26978;BME280;56314;48.088;11.642;2023-02-27T01:09:32;95598.44;;;-2.55;86.75
26978;BME280;56314;48.088;11.642;2023-02-27T01:12:01;95580.44;;;-2.55;86.00
26978;BME280;56314;48.088;11.642;2023-02-27T01:14:26;95589.97;;;-2.59;86.55
26978;BME280;56314;48.088;11.642;2023-02-27T01:16:51;95579.75;;;-2.64;86.10
26978;BME280;56314;48.088;11.642;2023-02-27T01:19:17;95587.56;;;-2.67;86.08
26978;BME280;56314;48.088;11.642;2023-02-27T01:21:45;95588.50;;;-2.71;87.42
26978;BME280;56314;48.088;11.642;2023-02-27T01:24:11;95585.00;;;-2.68;86.92
26978;BME280;56314;48.088;11.642;2023-02-27T01:26:37;95580.66;;;-2.65;87.68
26978;BME280;56314;48.088;11.642;2023-02-27T01:29:02;95582.38;;;-2.65;87.21
26978;BME280;56314;48.088;11.642;2023-02-27T01:31:28;95578.81;;;-2.59;87.04
26978;BME280;56314;48.088;11.642;2023-02-27T01:33:53;95582.25;;;-2.59;86.67
26978;BME280;56314;48.088;11.642;2023-02-27T01:36:19;95586.69;;;-2.66;86.34
26978;BME280;56314;48.088;11.642;2023-02-27T01:38:44;95587.63;;;-2.70;86.47
26978;BME280;56314;48.088;11.642;2023-02-27T01:41:10;95591.91;;;-2.70;87.69
26978;BME280;56314;48.088;11.642;2023-02-27T01:43:53;95586.00;;;-2.74;87.37
26978;BME280;56314;48.088;11.642;2023-02-27T01:46:18;95596.22;;;-2.71;86.63
26978;BME280;56314;48.088;11.642;2023-02-27T01:48:44;95588.47;;;-2.69;86.79
26978;BME280;56314;48.088;11.642;2023-02-27T01:51:13;95599.75;;;-2.76;86.82
26978;BME280;56314;48.088;11.642;2023-02-27T01:53:42;95586.84;;;-2.73;86.79
26978;BME280;56314;48.088;11.642;2023-02-27T01:56:22;95596.38;;;-2.79;86.16
26978;BME280;56314;48.088;11.642;2023-02-27T01:58:50;95602.38;;;-2.80;87.34
26978;BME280;56314;48.088;11.642;2023-02-27T02:01:18;95606.72;;;-2.82;86.46
26978;BME280;56314;48.088;11.642;2023-02-27T02:03:49;95605.16;;;-2.89;87.46
26978;BME280;56314;48.088;11.642;2023-02-27T02:06:16;95604.31;;;-2.89;87.57
26978;BME280;56314;48.088;11.642;2023-02-27T02:08:45;95606.00;;;-2.88;87.71
26978;BME280;56314;48.088;11.642;2023-02-27T02:11:14;95600.75;;;-2.82;87.47
26978;BME280;56314;48.088;11.642;2023-02-27T02:13:40;95610.03;;;-2.76;86.97
26978;BME280;56314;48.088;11.642;2023-02-27T02:16:20;95611.84;;;-2.80;86.99
26978;BME280;56314;48.088;11.642;2023-02-27T02:19:06;95605.81;;;-2.79;87.30
26978;BME280;56314;48.088;11.642;2023-02-27T02:21:52;95603.00;;;-2.67;86.89
26978;BME280;56314;48.088;11.642;2023-02-27T02:24:49;95600.31;;;-2.62;86.07
26978;BME280;56314;48.088;11.642;2023-02-27T02:33:14;95593.47;;;-2.63;85.93
26978;BME280;56314;48.088;11.642;2023-02-27T02:44:23;95608.22;;;-2.71;86.42
26978;BME280;56314;48.088;11.642;2023-02-27T02:53:12;95600.69;;;-2.79;86.99
26978;BME280;56314;48.088;11.642;2023-02-27T02:55:23;95602.38;;;-2.78;86.56
26978;BME280;56314;48.088;11.642;2023-02-27T02:58:07;95608.28;;;-2.74;87.33
26978;BME280;56314;48.088;11.642;2023-02-27T03:00:41;95602.44;;;-2.81;87.00
26978;BME280;56314;48.088;11.642;2023-02-27T03:03:19;95599.81;;;-2.78;86.57
26978;BME280;56314;48.088;11.642;2023-02-27T03:05:54;95598.81;;;-2.72;87.00
26978;BME280;56314;48.088;11.642;2023-02-27T03:08:27;95596.22;;;-2.71;86.52
26978;BME280;56314;48.088;11.642;2023-02-27T03:11:00;95598.13;;;-2.79;86.28
26978;BME280;56314;48.088;11.642;2023-02-27T03:13:33;95604.22;;;-2.85;86.99
26978;BME280;56314;48.088;11.642;2023-02-27T03:16:07;95605.06;;;-2.84;87.16
26978;BME280;56314;48.088;11.642;2023-02-27T03:18:49;95604.91;;;-2.76;87.32
26978;BME280;56314;48.088;11.642;2023-02-27T03:22:14;95602.50;;;-2.84;86.74
26978;BME280;56314;48.088;11.642;2023-02-27T03:24:18;95600.78;;;-2.85;87.70
26978;BME280;56314;48.088;11.642;2023-02-27T03:26:46;95608.50;;;-2.84;88.16
26978;BME280;56314;48.088;11.642;2023-02-27T03:29:19;95605.81;;;-2.79;87.82
26978;BME280;56314;48.088;11.642;2023-02-27T03:34:33;95602.94;;;-2.65;86.30
26978;BME280;56314;48.088;11.642;2023-02-27T03:39:47;95609.91;;;-2.70;86.66
26978;BME280;56314;48.088;11.642;2023-02-27T03:47:23;95609.72;;;-2.61;86.52
26978;BME280;56314;48.088;11.642;2023-02-27T03:49:48;95621.00;;;-2.68;86.25
26978;BME280;56314;48.088;11.642;2023-02-27T03:52:21;95621.16;;;-2.76;85.81
26978;BME280;56314;48.088;11.642;2023-02-27T03:54:55;95614.97;;;-2.66;86.32
26978;BME280;56314;48.088;11.642;2023-02-27T03:57:21;95618.31;;;-2.62;86.15
26978;BME280;56314;48.088;11.642;2023-02-27T03:59:46;95623.63;;;-2.70;85.73
26978;BME280;56314;48.088;11.642;2023-02-27T04:02:12;95614.09;;;-2.65;85.39
26978;BME280;56314;48.088;11.642;2023-02-27T04:04:38;95618.44;;;-2.68;85.64
26978;BME280;56314;48.088;11.642;2023-02-27T04:07:09;95619.13;;;-2.61;85.25
26978;BME280;56314;48.088;11.642;2023-02-27T04:21:09;95621.88;;;-2.69;85.63
26978;BME280;56314;48.088;11.642;2023-02-27T04:23:40;95623.47;;;-2.64;85.12
26978;BME280;56314;48.088;11.642;2023-02-27T04:29:02;95630.31;;;-2.63;84.76
26978;BME280;56314;48.088;11.642;2023-02-27T04:31:40;95634.56;;;-2.61;84.65
26978;BME280;56314;48.088;11.642;2023-02-27T04:36:56;95634.41;;;-2.54;83.74
26978;BME280;56314;48.088;11.642;2023-02-27T04:39:31;95623.19;;;-2.51;84.08
26978;BME280;56314;48.088;11.642;2023-02-27T04:42:04;95627.63;;;-2.56;84.06
26978;BME280;56314;48.088;11.642;2023-02-27T04:44:34;95628.59;;;-2.62;83.37
26978;BME280;56314;48.088;11.642;2023-02-27T04:47:02;95620.91;;;-2.64;83.82
26978;BME280;56314;48.088;11.642;2023-02-27T04:49:45;95633.78;;;-2.65;84.64
26978;BME280;56314;48.088;11.642;2023-02-27T04:52:15;95623.50;;;-2.65;84.50
26978;BME280;56314;48.088;11.642;2023-02-27T04:54:55;95628.50;;;-2.57;83.54
26978;BME280;56314;48.088;11.642;2023-02-27T04:57:30;95626.22;;;-2.71;83.30
26978;BME280;56314;48.088;11.642;2023-02-27T05:00:04;95620.38;;;-2.78;83.75
26978;BME280;56314;48.088;11.642;2023-02-27T05:02:38;95615.91;;;-2.70;83.92
26978;BME280;56314;48.088;11.642;2023-02-27T05:05:08;95614.25;;;-2.72;83.68
26978;BME280;56314;48.088;11.642;2023-02-27T05:07:38;95616.84;;;-2.74;83.79
26978;BME280;56314;48.088;11.642;2023-02-27T05:10:11;95618.41;;;-2.67;83.38
26978;BME280;56314;48.088;11.642;2023-02-27T05:12:47;95620.03;;;-2.63;83.35
26978;BME280;56314;48.088;11.642;2023-02-27T05:15:29;95618.56;;;-2.74;83.17
26978;BME280;56314;48.088;11.642;2023-02-27T05:18:17;95617.56;;;-2.67;82.58
26978;BME280;56314;48.088;11.642;2023-02-27T05:23:42;95624.53;;;-2.74;82.83
26978;BME280;56314;48.088;11.642;2023-02-27T05:26:17;95618.66;;;-2.79;82.62
26978;BME280;56314;48.088;11.642;2023-02-27T05:29:07;95620.53;;;-2.86;83.14
26978;BME280;56314;48.088;11.642;2023-02-27T05:32:07;95616.16;;;-2.82;83.55
26978;BME280;56314;48.088;11.642;2023-02-27T05:34:43;95625.69;;;-2.87;83.35
26978;BME280;56314;48.088;11.642;2023-02-27T05:37:20;95624.84;;;-2.88;82.76
26978;BME280;56314;48.088;11.642;2023-02-27T05:39:48;95617.19;;;-2.91;82.72
26978;BME280;56314;48.088;11.642;2023-02-27T05:42:21;95623.19;;;-2.90;83.49
26978;BME280;56314;48.088;11.642;2023-02-27T05:44:56;95624.22;;;-2.99;83.63
26978;BME280;56314;48.088;11.642;2023-02-27T05:47:27;95627.50;;;-2.92;83.95
26978;BME280;56314;48.088;11.642;2023-02-27T05:49:58;95625.69;;;-2.87;83.50
26978;BME280;56314;48.088;11.642;2023-02-27T05:52:29;95633.38;;;-2.86;82.74
26978;BME280;56314;48.088;11.642;2023-02-27T05:55:00;95621.41;;;-2.88;82.49
26978;BME280;56314;48.088;11.642;2023-02-27T05:57:37;95629.88;;;-2.83;82.97
26978;BME280;56314;48.088;11.642;2023-02-27T06:00:18;95628.25;;;-2.86;82.34
26978;BME280;56314;48.088;11.642;2023-02-27T06:02:51;95631.63;;;-2.85;82.37
26978;BME280;56314;48.088;11.642;2023-02-27T06:05:18;95632.34;;;-2.77;82.10
26978;BME280;56314;48.088;11.642;2023-02-27T06:07:43;95634.09;;;-2.81;82.17
26978;BME280;56314;48.088;11.642;2023-02-27T06:10:16;95642.75;;;-2.83;81.90
26978;BME280;56314;48.088;11.642;2023-02-27T06:12:43;95636.78;;;-2.84;81.69
26978;BME280;56314;48.088;11.642;2023-02-27T06:15:09;95633.38;;;-2.87;81.99
26978;BME280;56314;48.088;11.642;2023-02-27T06:17:35;95642.94;;;-2.92;82.64
26978;BME280;56314;48.088;11.642;2023-02-27T06:20:00;95640.84;;;-2.73;81.11
26978;BME280;56314;48.088;11.642;2023-02-27T06:22:26;95639.97;;;-2.72;81.67
26978;BME280;56314;48.088;11.642;2023-02-27T06:24:53;95650.97;;;-2.67;80.46
26978;BME280;56314;48.088;11.642;2023-02-27T06:27:19;95638.25;;;-2.73;81.51
26978;BME280;56314;48.088;11.642;2023-02-27T06:29:44;95649.19;;;-2.64;81.05
26978;BME280;56314;48.088;11.642;2023-02-27T06:32:09;95660.97;;;-2.53;79.97
26978;BME280;56314;48.088;11.642;2023-02-27T06:34:35;95655.97;;;-2.59;80.38
26978;BME280;56314;48.088;11.642;2023-02-27T06:37:00;95656.53;;;-2.47;79.95
26978;BME280;56314;48.088;11.642;2023-02-27T06:39:28;95661.56;;;-2.40;79.89
26978;BME280;56314;48.088;11.642;2023-02-27T06:41:54;95662.44;;;-2.41;78.59
26978;BME280;56314;48.088;11.642;2023-02-27T06:44:19;95663.25;;;-2.39;79.27
26978;BME280;56314;48.088;11.642;2023-02-27T06:46:45;95660.63;;;-2.36;79.31
26978;BME280;56314;48.088;11.642;2023-02-27T06:49:10;95663.19;;;-2.38;78.60
26978;BME280;56314;48.088;11.642;2023-02-27T06:51:36;95659.53;;;-2.26;79.05
26978;BME280;56314;48.088;11.642;2023-02-27T06:54:01;95655.00;;;-2.16;77.78
26978;BME280;56314;48.088;11.642;2023-02-27T06:56:26;95659.19;;;-2.12;77.45
26978;BME280;56314;48.088;11.642;2023-02-27T06:58:52;95659.94;;;-2.07;77.77
26978;BME280;56314;48.088;11.642;2023-02-27T07:01:20;95656.97;;;-1.90;77.16
26978;BME280;56314;48.088;11.642;2023-02-27T07:03:45;95657.13;;;-1.96;76.67
26978;BME280;56314;48.088;11.642;2023-02-27T07:06:11;95654.34;;;-1.88;76.81
26978;BME280;56314;48.088;11.642;2023-02-27T07:08:36;95654.34;;;-1.88;76.23
26978;BME280;56314;48.088;11.642;2023-02-27T07:11:01;95648.88;;;-1.74;76.06
26978;BME280;56314;48.088;11.642;2023-02-27T07:13:27;95658.06;;;-1.64;76.00
26978;BME280;56314;48.088;11.642;2023-02-27T07:15:54;95657.34;;;-1.69;74.80
26978;BME280;56314;48.088;11.642;2023-02-27T07:18:20;95658.19;;;-1.68;74.25
26978;BME280;56314;48.088;11.642;2023-02-27T07:20:48;95657.19;;;-1.63;74.65
26978;BME280;56314;48.088;11.642;2023-02-27T07:23:14;95659.78;;;-1.64;74.92
26978;BME280;56314;48.088;11.642;2023-02-27T07:25:39;95655.19;;;-1.51;74.72
26978;BME280;56314;48.088;11.642;2023-02-27T07:28:04;95652.72;;;-1.56;73.22
26978;BME280;56314;48.088;11.642;2023-02-27T07:30:30;95658.41;;;-1.43;73.86
26978;BME280;56314;48.088;11.642;2023-02-27T07:32:55;95663.56;;;-1.43;73.74
26978;BME280;56314;48.088;11.642;2023-02-27T07:35:20;95658.53;;;-1.48;74.05
26978;BME280;56314;48.088;11.642;2023-02-27T07:37:46;95674.56;;;-1.38;73.66
26978;BME280;56314;48.088;11.642;2023-02-27T07:40:12;95665.22;;;-1.41;73.02
26978;BME280;56314;48.088;11.642;2023-02-27T07:42:38;95677.28;;;-1.43;73.06
26978;BME280;56314;48.088;11.642;2023-02-27T07:45:04;95677.31;;;-1.44;73.64
26978;BME280;56314;48.088;11.642;2023-02-27T07:47:30;95669.22;;;-1.30;72.65
26978;BME280;56314;48.088;11.642;2023-02-27T07:49:55;95669.41;;;-1.36;73.64
26978;BME280;56314;48.088;11.642;2023-02-27T07:52:21;95676.00;;;-1.26;72.67
26978;BME280;56314;48.088;11.642;2023-02-27T07:54:46;95674.25;;;-1.26;73.24
26978;BME280;56314;48.088;11.642;2023-02-27T07:57:11;95673.56;;;-1.31;71.78
26978;BME280;56314;48.088;11.642;2023-02-27T07:59:37;95681.22;;;-1.28;71.66
26978;BME280;56314;48.088;11.642;2023-02-27T08:02:05;95678.66;;;-1.29;72.15
26978;BME280;56314;48.088;11.642;2023-02-27T08:04:31;95673.19;;;-1.17;71.34
26978;BME280;56314;48.088;11.642;2023-02-27T08:06:56;95679.69;;;-1.03;71.28
26978;BME280;56314;48.088;11.642;2023-02-27T08:09:22;95674.06;;;-1.18;71.24
26978;BME280;56314;48.088;11.642;2023-02-27T08:11:47;95679.47;;;-1.27;72.43
26978;BME280;56314;48.088;11.642;2023-02-27T08:14:13;95681.16;;;-1.26;71.67
26978;BME280;56314;48.088;11.642;2023-02-27T08:16:38;95680.88;;;-1.15;72.39
26978;BME280;56314;48.088;11.642;2023-02-27T08:19:04;95684.16;;;-1.09;71.51
26978;BME280;56314;48.088;11.642;2023-02-27T08:21:29;95684.78;;;-1.00;71.01
26978;BME280;56314;48.088;11.642;2023-02-27T08:23:54;95682.13;;;-0.97;71.36
26978;BME280;56314;48.088;11.642;2023-02-27T08:26:20;95685.41;;;-0.92;71.21
26978;BME280;56314;48.088;11.642;2023-02-27T08:28:45;95684.44;;;-0.88;70.55
26978;BME280;56314;48.088;11.642;2023-02-27T08:31:10;95690.31;;;-0.83;70.47
26978;BME280;56314;48.088;11.642;2023-02-27T08:33:36;95684.38;;;-0.85;69.81
26978;BME280;56314;48.088;11.642;2023-02-27T08:36:01;95690.22;;;-0.80;69.59
26978;BME280;56314;48.088;11.642;2023-02-27T08:38:27;95693.91;;;-0.88;69.76
26978;BME280;56314;48.088;11.642;2023-02-27T08:40:52;95698.50;;;-0.68;70.35
26978;BME280;56314;48.088;11.642;2023-02-27T08:43:19;95692.13;;;-0.55;69.53
26978;BME280;56314;48.088;11.642;2023-02-27T08:45:45;95701.22;;;-0.41;68.84
26978;BME280;56314;48.088;11.642;2023-02-27T08:48:10;95698.16;;;-0.54;67.30
26978;BME280;56314;48.088;11.642;2023-02-27T08:50:38;95702.38;;;-0.52;67.35
26978;BME280;56314;48.088;11.642;2023-02-27T08:53:03;95700.34;;;-0.42;67.10
26978;BME280;56314;48.088;11.642;2023-02-27T08:55:29;95711.31;;;-0.34;67.62
26978;BME280;56314;48.088;11.642;2023-02-27T08:57:54;95714.69;;;-0.32;67.76
26978;BME280;56314;48.088;11.642;2023-02-27T09:00:20;95721.44;;;-0.57;66.97
26978;BME280;56314;48.088;11.642;2023-02-27T09:02:45;95715.13;;;-0.79;67.17
26978;BME280;56314;48.088;11.642;2023-02-27T09:05:11;95719.22;;;-0.71;67.83
26978;BME280;56314;48.088;11.642;2023-02-27T09:07:36;95715.81;;;-0.72;67.35
26978;BME280;56314;48.088;11.642;2023-02-27T09:10:02;95721.81;;;-0.71;67.02
26978;BME280;56314;48.088;11.642;2023-02-27T09:12:27;95713.56;;;-0.53;67.98
26978;BME280;56314;48.088;11.642;2023-02-27T09:14:52;95721.31;;;-0.53;66.87
26978;BME280;56314;48.088;11.642;2023-02-27T09:17:21;95721.94;;;-0.44;66.53
26978;BME280;56314;48.088;11.642;2023-02-27T09:19:46;95724.13;;;-0.30;66.98
26978;BME280;56314;48.088;11.642;2023-02-27T09:22:11;95725.50;;;-0.19;65.97
26978;BME280;56314;48.088;11.642;2023-02-27T09:24:37;95725.50;;;-0.19;65.33
26978;BME280;56314;48.088;11.642;2023-02-27T09:27:02;95727.91;;;-0.12;65.87
26978;BME280;56314;48.088;11.642;2023-02-27T09:29:27;95734.88;;;-0.16;66.04
26978;BME280;56314;48.088;11.642;2023-02-27T09:31:53;95725.91;;;-0.33;65.94
26978;BME280;56314;48.088;11.642;2023-02-27T09:34:18;95740.91;;;-0.79;67.49
26978;BME280;56314;48.088;11.642;2023-02-27T09:36:43;95753.25;;;-0.90;69.29
26978;BME280;56314;48.088;11.642;2023-02-27T09:39:09;95749.66;;;-1.17;70.68
26978;BME280;56314;48.088;11.642;2023-02-27T09:41:37;95769.41;;;-1.18;71.34
26978;BME280;56314;48.088;11.642;2023-02-27T09:44:20;95756.31;;;-1.09;70.99
26978;BME280;56314;48.088;11.642;2023-02-27T09:46:48;95751.50;;;-0.88;69.54
26978;BME280;56314;48.088;11.642;2023-02-27T09:49:16;95753.53;;;-0.68;69.63
26978;BME280;56314;48.088;11.642;2023-02-27T09:51:43;95759.75;;;-0.43;69.59
26978;BME280;56314;48.088;11.642;2023-02-27T09:54:11;95763.31;;;-0.18;68.74
26978;BME280;56314;48.088;11.642;2023-02-27T09:56:47;95762.97;;;-0.05;66.69
26978;BME280;56314;48.088;11.642;2023-02-27T09:59:38;95765.44;;;-0.32;65.33
26978;BME280;56314;48.088;11.642;2023-02-27T10:15:26;95779.41;;;-0.08;60.64
26978;BME280;56314;48.088;11.642;2023-02-27T10:18:10;95777.91;;;0.13;59.64
26978;BME280;56314;48.088;11.642;2023-02-27T10:20:44;95775.53;;;0.07;58.63
26978;BME280;56314;48.088;11.642;2023-02-27T10:23:14;95779.94;;;0.32;59.40
26978;BME280;56314;48.088;11.642;2023-02-27T10:25:46;95783.03;;;0.43;56.31
26978;BME280;56314;48.088;11.642;2023-02-27T10:28:19;95801.25;;;0.10;55.04
26978;BME280;56314;48.088;11.642;2023-02-27T10:30:48;95791.75;;;0.11;55.31
26978;BME280;56314;48.088;11.642;2023-02-27T10:33:40;95782.50;;;0.04;53.85
26978;BME280;56314;48.088;11.642;2023-02-27T10:36:06;95795.44;;;0.02;54.35
26978;BME280;56314;48.088;11.642;2023-02-27T10:38:41;95782.91;;;0.20;54.64
26978;BME280;56314;48.088;11.642;2023-02-27T10:41:14;95791.59;;;0.17;53.97
26978;BME280;56314;48.088;11.642;2023-02-27T10:43:40;95793.25;;;0.18;54.15
26978;BME280;56314;48.088;11.642;2023-02-27T10:46:12;95804.28;;;-0.05;52.74
26978;BME280;56314;48.088;11.642;2023-02-27T10:48:39;95798.50;;;-0.13;53.42
26978;BME280;56314;48.088;11.642;2023-02-27T10:51:26;95802.44;;;-0.02;53.71
26978;BME280;56314;48.088;11.642;2023-02-27T10:54:20;95804.00;;;0.04;53.74
26978;BME280;56314;48.088;11.642;2023-02-27T10:59:20;95805.31;;;0.48;53.08
26978;BME280;56314;48.088;11.642;2023-02-27T11:01:50;95801.44;;;0.33;52.95
26978;BME280;56314;48.088;11.642;2023-02-27T11:04:25;95813.00;;;0.21;52.83
26978;BME280;56314;48.088;11.642;2023-02-27T11:06:52;95805.41;;;0.16;52.92
26978;BME280;56314;48.088;11.642;2023-02-27T11:09:24;95803.69;;;0.15;53.06
26978;BME280;56314;48.088;11.642;2023-02-27T11:11:50;95799.88;;;0.28;53.67
26978;BME280;56314;48.088;11.642;2023-02-27T11:14:32;95807.41;;;0.35;52.89
26978;BME280;56314;48.088;11.642;2023-02-27T11:17:00;95801.22;;;0.40;53.21
26978;BME280;56314;48.088;11.642;2023-02-27T11:19:37;95804.69;;;0.39;52.97
26978;BME280;56314;48.088;11.642;2023-02-27T11:22:23;95796.41;;;0.28;53.17
26978;BME280;56314;48.088;11.642;2023-02-27T11:25:09;95799.56;;;0.09;53.27
26978;BME280;56314;48.088;11.642;2023-02-27T11:27:39;95802.91;;;0.13;52.43
26978;BME280;56314;48.088;11.642;2023-02-27T11:30:25;95790.41;;;-0.01;52.22
26978;BME280;56314;48.088;11.642;2023-02-27T11:32:52;95799.91;;;-0.03;52.36
26978;BME280;56314;48.088;11.642;2023-02-27T11:35:23;95790.88;;;-0.18;53.53
26978;BME280;56314;48.088;11.642;2023-02-27T11:37:51;95799.28;;;-0.11;53.44
26978;BME280;56314;48.088;11.642;2023-02-27T11:40:18;95790.22;;;-0.25;54.11
26978;BME280;56314;48.088;11.642;2023-02-27T11:42:48;95784.44;;;-0.03;54.36
26978;BME280;56314;48.088;11.642;2023-02-27T11:47:50;95779.94;;;0.04;54.48
26978;BME280;56314;48.088;11.642;2023-02-27T11:53:22;95782.19;;;0.14;54.82
26978;BME280;56314;48.088;11.642;2023-02-27T11:55:52;95787.75;;;0.01;55.89
26978;BME280;56314;48.088;11.642;2023-02-27T11:58:21;95797.13;;;0.05;55.81
26978;BME280;56314;48.088;11.642;2023-02-27T12:04:25;95784.91;;;-0.20;58.24
26978;BME280;56314;48.088;11.642;2023-02-27T12:06:40;95795.19;;;-0.19;57.94
26978;BME280;56314;48.088;11.642;2023-02-27T12:11:55;95786.16;;;-0.34;60.63
26978;BME280;56314;48.088;11.642;2023-02-27T12:14:38;95785.69;;;-0.48;59.36
26978;BME280;56314;48.088;11.642;2023-02-27T12:17:25;95786.28;;;-0.38;59.20
26978;BME280;56314;48.088;11.642;2023-02-27T12:22:39;95790.56;;;-0.39;60.70
26978;BME280;56314;48.088;11.642;2023-02-27T12:25:32;95790.72;;;-0.43;61.06
26978;BME280;56314;48.088;11.642;2023-02-27T12:34:01;95790.63;;;-0.10;59.68
26978;BME280;56314;48.088;11.642;2023-02-27T12:36:28;95794.16;;;-0.13;59.05
26978;BME280;56314;48.088;11.642;2023-02-27T12:38:53;95785.47;;;-0.10;57.40
26978;BME280;56314;48.088;11.642;2023-02-27T12:55:14;95781.56;;;-0.24;56.63
26978;BME280;56314;48.088;11.642;2023-02-27T13:03:28;95797.31;;;-0.33;58.03
26978;BME280;56314;48.088;11.642;2023-02-27T13:07:00;95794.94;;;-0.41;58.50
26978;BME280;56314;48.088;11.642;2023-02-27T13:17:01;95793.03;;;-0.34;58.20
26978;BME280;56314;48.088;11.642;2023-02-27T13:19:33;95788.94;;;-0.41;57.52
26978;BME280;56314;48.088;11.642;2023-02-27T13:25:10;95787.00;;;-0.03;58.10
26978;BME280;56314;48.088;11.642;2023-02-27T13:27:43;95786.22;;;-0.05;58.47
26978;BME280;56314;48.088;11.642;2023-02-27T13:33:15;95792.25;;;-0.06;59.69
26978;BME280;56314;48.088;11.642;2023-02-27T13:35:53;95787.56;;;0.07;59.69
26978;BME280;56314;48.088;11.642;2023-02-27T13:38:46;95792.97;;;-0.01;61.80
26978;BME280;56314;48.088;11.642;2023-02-27T13:43:53;95785.97;;;0.03;64.71
26978;BME280;56314;48.088;11.642;2023-02-27T13:46:27;95797.69;;;0.14;62.13
26978;BME280;56314;48.088;11.642;2023-02-27T13:56:38;95803.41;;;-0.06;59.08
26978;BME280;56314;48.088;11.642;2023-02-27T13:59:20;95797.84;;;-0.22;60.57
26978;BME280;56314;48.088;11.642;2023-02-27T14:01:50;95793.22;;;-0.42;60.10
26978;BME280;56314;48.088;11.642;2023-02-27T14:04:17;95796.34;;;-0.29;59.74
26978;BME280;56314;48.088;11.642;2023-02-27T14:06:45;95794.59;;;-0.28;60.39
26978;BME280;56314;48.088;11.642;2023-02-27T14:09:17;95783.75;;;-0.10;60.35
26978;BME280;56314;48.088;11.642;2023-02-27T14:11:59;95795.56;;;-0.01;59.86
26978;BME280;56314;48.088;11.642;2023-02-27T14:14:45;95793.75;;;0.01;60.04
26978;BME280;56314;48.088;11.642;2023-02-27T14:17:13;95785.72;;;0.12;60.47
26978;BME280;56314;48.088;11.642;2023-02-27T14:20:10;95791.69;;;0.14;59.53
26978;BME280;56314;48.088;11.642;2023-02-27T14:25:36;95784.75;;;0.14;59.51
26978;BME280;56314;48.088;11.642;2023-02-27T14:28:03;95790.22;;;0.34;61.02
26978;BME280;56314;48.088;11.642;2023-02-27T14:30:35;95783.72;;;0.20;60.43
26978;BME280;56314;48.088;11.642;2023-02-27T14:33:10;95789.47;;;0.30;60.36
26978;BME280;56314;48.088;11.642;2023-02-27T14:35:37;95779.13;;;0.58;61.35
26978;BME280;56314;48.088;11.642;2023-02-27T14:38:09;95789.69;;;0.51;60.87
26978;BME280;56314;48.088;11.642;2023-02-27T14:40:51;95779.81;;;0.37;60.55
26978;BME280;56314;48.088;11.642;2023-02-27T14:46:06;95790.94;;;0.10;61.65
26978;BME280;56314;48.088;11.642;2023-02-27T14:48:34;95786.78;;;0.05;62.08
26978;BME280;56314;48.088;11.642;2023-02-27T14:51:02;95789.47;;;0.02;61.96
26978;BME280;56314;48.088;11.642;2023-02-27T14:53:27;95784.28;;;0.02;61.67
26978;BME280;56314;48.088;11.642;2023-02-27T14:55:57;95788.59;;;0.01;61.49
26978;BME280;56314;48.088;11.642;2023-02-27T14:58:24;95792.38;;;-0.11;62.00
26978;BME280;56314;48.088;11.642;2023-02-27T15:01:02;95794.78;;;-0.35;60.83
26978;BME280;56314;48.088;11.642;2023-02-27T15:03:31;95796.06;;;-0.50;60.51
26978;BME280;56314;48.088;11.642;2023-02-27T15:06:00;95787.81;;;-0.64;61.73
26978;BME280;56314;48.088;11.642;2023-02-27T15:08:38;95799.25;;;-0.41;61.89
26978;BME280;56314;48.088;11.642;2023-02-27T15:11:04;95797.75;;;-0.50;61.17
26978;BME280;56314;48.088;11.642;2023-02-27T15:13:37;95799.41;;;-0.48;60.98
26978;BME280;56314;48.088;11.642;2023-02-27T15:18:55;95797.34;;;-0.35;61.28
26978;BME280;56314;48.088;11.642;2023-02-27T15:21:24;95805.63;;;-0.55;61.34
26978;BME280;56314;48.088;11.642;2023-02-27T15:23:59;95806.84;;;-0.68;62.35
26978;BME280;56314;48.088;11.642;2023-02-27T15:26:27;95797.47;;;-0.71;63.16
26978;BME280;56314;48.088;11.642;2023-02-27T15:28:56;95812.00;;;-0.68;61.80